Terminal Aerodrome Forecast
Issued by NWS

Home | Current Version | Previous Version | Text Only | Print | Product List | Glossary On
Versions: 1 2 3 4 5 6 7 8 9 10 11 12 13 14 15
000
FTUS43 KDLH 201723
TAFBRD
TAF
KBRD 201723Z 2018/2118 20011KT P6SM BKN110
     FM202300 23009KT P6SM BKN150 WS020/28045KT
     FM210300 27012G20KT P6SM BKN100
     FM210600 30017G28KT P6SM SCT025 BKN040
     FM211100 31018G29KT P6SM BKN030
     FM211500 32018G29KT P6SM BKN035=

USA.gov is the U.S. government's official web portal to all federal, state and local government web resources and services.